.
WxDataArchive / Data Records for 2007-03-27
2007-03-26 March 2007 2007-03-28

Data Records for Tuesday, 27 March 2007

Time	Temp	Chill	HIndex	Humid	Dewpt	 Wind 	HiWind	WindDir	Rain 	Barom 
-----	----	-----	------	-----	-----	------	------	-------	-----	----- 
00:00	68.1	68.1	68.1	70	57.9	2	4	248	0.00	29.995 
00:05	67.9	67.9	67.9	70	57.7	2	4	248	0.00	29.993 
00:10	67.9	67.9	67.9	71	58.1	2	5	248	0.00	29.993 
00:15	67.6	67.6	67.6	71	57.9	1	4	248	0.00	29.993 
00:20	67.6	67.6	67.6	71	57.9	1	4	248	0.00	29.992 
00:25	67.4	67.4	67.4	71	57.7	1	3	248	0.00	29.992 
00:30	67.3	67.3	67.3	72	58.0	2	6	248	0.00	29.992 
00:35	67.1	67.1	67.1	72	57.8	2	4	248	0.00	29.993 
00:40	67.1	67.1	67.1	72	57.8	1	4	248	0.00	29.993 
00:45	66.9	66.9	66.9	72	57.6	2	6	248	0.00	29.993 
00:50	66.9	66.9	66.9	72	57.6	2	6	248	0.00	29.993 
00:55	66.8	66.8	66.8	72	57.5	2	5	248	0.00	29.994 
01:00	66.8	66.8	66.8	73	57.9	2	7	248	0.00	29.994 
01:05	66.8	66.8	66.8	72	57.5	3	6	248	0.00	29.992 
01:10	66.9	66.9	66.9	72	57.6	3	6	248	0.00	29.994 
01:15	66.8	66.8	66.8	72	57.5	3	7	248	0.00	29.994 
01:20	66.8	66.8	66.8	72	57.5	2	7	248	0.00	29.995 
01:25	66.8	66.8	66.8	72	57.5	3	7	248	0.00	29.994 
01:30	66.6	66.6	66.6	73	57.7	2	6	248	0.00	29.994 
01:35	66.6	66.6	66.6	73	57.7	3	6	248	0.00	29.994 
01:40	66.4	66.4	66.4	73	57.5	3	6	248	0.00	29.994 
01:45	66.4	66.4	66.4	73	57.5	3	9	248	0.00	29.994 
01:50	66.3	66.3	66.3	73	57.4	3	6	248	0.00	29.994 
01:55	66.1	66.1	66.1	73	57.2	3	8	248	0.00	29.993 
02:00	66.0	66.0	66.0	73	57.1	2	6	248	0.00	29.992 
02:05	65.8	65.8	65.8	74	57.3	2	6	248	0.00	29.993 
02:10	65.8	65.8	65.8	74	57.3	3	7	248	0.00	29.993 
02:15	65.6	65.6	65.6	74	57.1	2	6	248	0.00	29.992 
02:20	65.5	65.5	65.5	75	57.4	2	7	248	0.00	29.992 
02:25	65.3	65.3	65.3	75	57.2	2	5	248	0.00	29.992 
02:30	65.2	65.2	65.2	76	57.4	2	5	248	0.00	29.992 
02:35	65.0	65.0	65.0	76	57.2	2	5	248	0.00	29.991 
02:40	65.0	65.0	65.0	76	57.2	1	6	248	0.00	29.991 
02:45	64.8	64.8	64.8	76	57.0	2	6	248	0.00	29.991 
02:50	64.8	64.8	64.8	76	57.0	1	4	248	0.00	29.991 
02:55	64.7	64.7	64.7	77	57.3	1	5	248	0.00	29.990 
03:00	64.7	64.7	64.7	77	57.3	1	4	248	0.00	29.990 
03:05	64.5	64.5	64.5	77	57.1	2	4	248	0.00	29.990 
03:10	64.5	64.5	64.5	77	57.1	1	4	248	0.00	29.990 
03:15	64.3	64.3	64.3	77	56.9	1	3	248	0.00	29.991 
03:20	64.2	64.2	64.2	77	56.8	1	2	248	0.00	29.993 
03:25	64.0	64.0	64.0	78	57.0	1	4	248	0.00	29.993 
03:30	64.0	64.0	64.0	78	57.0	2	4	248	0.00	29.994 
03:35	64.0	64.0	64.0	78	57.0	2	5	248	0.00	29.994 
03:40	64.2	64.2	64.2	78	57.2	2	6	248	0.00	29.995 
03:45	64.0	64.0	64.0	78	57.0	1	3	248	0.00	29.995 
03:50	64.0	64.0	64.0	78	57.0	1	5	248	0.00	29.994 
03:55	64.0	64.0	64.0	78	57.0	1	4	248	0.00	29.993 
04:00	64.0	64.0	64.0	78	57.0	2	3	248	0.00	29.992 
04:05	63.9	63.9	63.9	78	56.9	2	4	248	0.00	29.993 
04:10	63.9	63.9	63.9	78	56.9	1	5	248	0.00	29.994 
04:15	63.9	63.9	63.9	78	56.9	2	5	225	0.00	29.994 
04:20	63.7	63.7	63.7	78	56.7	2	4	248	0.00	29.994 
04:25	63.7	63.7	63.7	78	56.7	2	5	248	0.00	29.994 
04:30	63.7	63.7	63.7	78	56.7	1	5	248	0.00	29.994 
04:35	63.7	63.7	63.7	78	56.7	1	2	248	0.00	29.994 
04:40	63.5	63.5	63.5	78	56.5	2	4	248	0.00	29.999 
04:45	63.5	63.5	63.5	78	56.5	1	4	248	0.00	30.000 
04:50	63.5	63.5	63.5	78	56.5	2	4	248	0.00	30.001 
04:55	63.5	63.5	63.5	78	56.5	1	4	248	0.00	30.005 
05:00	63.4	63.4	63.4	78	56.4	1	3	248	0.00	30.009 
05:05	63.2	63.2	63.2	79	56.6	0	1	248	0.00	30.010 
05:10	62.9	62.9	62.9	79	56.3	0	1	248	0.00	30.011 
05:15	62.7	62.7	62.7	80	56.4	0	1	248	0.00	30.012 
05:20	62.6	62.6	62.6	81	56.7	0	2	248	0.00	30.011 
05:25	62.4	62.4	62.4	81	56.5	0	2	248	0.00	30.013 
05:30	62.3	62.3	62.3	81	56.4	0	1	248	0.00	30.013 
05:35	62.3	62.3	62.3	81	56.4	0	1	248	0.00	30.014 
05:40	62.3	62.3	62.3	81	56.4	0	2	248	0.00	30.014 
05:45	62.3	62.3	62.3	82	56.7	0	2	248	0.00	30.014 
05:50	62.3	62.3	62.3	81	56.4	0	2	248	0.00	30.014 
05:55	62.4	62.4	62.4	81	56.5	0	1	248	0.00	30.014 
06:00	62.4	62.4	62.4	81	56.5	0	2	248	0.00	30.014 
06:05	62.6	62.6	62.6	81	56.7	1	3	248	0.00	30.015 
06:10	62.6	62.6	62.6	81	56.7	1	3	248	0.00	30.017 
06:15	62.6	62.6	62.6	81	56.7	0	3	248	0.00	30.016 
06:20	62.6	62.6	62.6	81	56.7	1	4	248	0.00	30.020 
06:25	62.7	62.7	62.7	81	56.8	0	2	248	0.00	30.022 
06:30	62.7	62.7	62.7	81	56.8	1	3	248	0.00	30.023 
06:35	62.7	62.7	62.7	81	56.8	0	1	248	0.00	30.026 
06:40	62.6	62.6	62.6	81	56.7	1	2	248	0.00	30.026 
06:45	62.7	62.7	62.7	81	56.8	1	3	248	0.00	30.026 
06:50	62.7	62.7	62.7	81	56.8	0	2	248	0.00	30.025 
06:55	62.6	62.6	62.6	81	56.7	0	3	225	0.00	30.022 
07:00	62.6	62.6	62.6	81	56.7	0	2	225	0.00	30.023 
07:05	62.6	62.6	62.6	81	56.7	0	2	225	0.00	30.028 
07:10	62.6	62.6	62.6	81	56.7	0	1	225	0.00	30.029 
07:15	62.7	62.7	62.7	81	56.8	0	2	225	0.00	30.031 
07:20	62.7	62.7	62.7	81	56.8	0	2	225	0.00	30.030 
07:25	62.7	62.7	62.7	81	56.8	0	1	225	0.00	30.030 
07:30	62.9	62.9	62.9	81	57.0	0	2	225	0.00	30.033 
07:35	62.9	62.9	62.9	81	57.0	0	2	225	0.00	30.034 
07:40	62.7	62.7	62.7	82	57.1	0	2	225	0.00	30.037 
07:45	62.6	62.6	62.6	82	57.0	0	1	225	0.00	30.036 
07:50	62.4	62.4	62.4	82	56.8	0	2	225	0.00	30.037 
07:55	62.4	62.4	62.4	82	56.8	0	2	225	0.00	30.038 
08:00	62.6	62.6	62.6	82	57.0	0	1	225	0.00	30.039 
08:05	62.4	62.4	62.4	82	56.8	0	2	225	0.00	30.041 
08:10	62.4	62.4	62.4	83	57.2	0	2	248	0.00	30.046 
08:15	62.4	62.4	62.4	83	57.2	0	3	248	0.00	30.047 
08:20	62.4	62.4	62.4	83	57.2	1	3	248	0.00	30.048 
08:25	62.6	62.6	62.6	83	57.4	2	5	248	0.00	30.048 
08:30	62.9	62.9	62.9	82	57.3	1	4	248	0.00	30.049 
08:35	63.1	63.1	63.1	82	57.5	2	5	248	0.00	30.050 
08:40	63.2	63.2	63.2	81	57.3	2	5	248	0.00	30.053 
08:45	63.4	63.4	63.4	81	57.5	2	6	248	0.00	30.054 
08:50	63.5	63.5	63.5	81	57.6	2	4	248	0.00	30.055 
08:55	63.5	63.5	63.5	81	57.6	2	4	248	0.00	30.055 
09:00	63.7	63.7	63.7	81	57.8	2	5	248	0.00	30.057 
09:05	63.7	63.7	63.7	82	58.1	3	9	248	0.00	30.058 
09:10	63.7	63.7	63.7	82	58.1	2	6	248	0.00	30.059 
09:15	63.7	63.7	63.7	82	58.1	3	9	248	0.00	30.062 
09:20	63.9	63.9	63.9	83	58.6	3	9	248	0.00	30.062 
09:25	63.9	63.9	63.9	83	58.6	3	7	248	0.00	30.062 
09:30	63.7	63.7	63.7	84	58.8	2	7	248	0.00	30.062 
09:35	63.7	63.7	63.7	85	59.1	3	5	270	0.00	30.061 
09:40	63.7	63.7	63.7	85	59.1	3	9	248	0.00	30.062 
09:45	63.9	63.9	63.9	86	59.6	2	7	248	0.00	30.061 
09:50	63.9	63.9	63.9	87	59.9	3	7	248	0.00	30.060 
09:55	63.9	63.9	63.9	87	59.9	3	7	248	0.00	30.059 
10:00	64.0	64.0	64.0	88	60.4	2	5	270	0.00	30.062 
10:05	64.0	64.0	64.0	88	60.4	2	4	270	0.01	30.062 
10:10	64.0	64.0	64.0	89	60.7	3	7	248	0.00	30.062 
10:15	64.2	64.2	64.2	89	60.9	2	7	270	0.00	30.061 
10:20	64.2	64.2	64.2	89	60.9	2	5	248	0.00	30.061 
10:25	64.2	64.2	64.2	89	60.9	3	7	270	0.00	30.061 
10:30	64.2	64.2	64.2	89	60.9	2	4	270	0.00	30.062 
10:35	64.2	64.2	64.2	89	60.9	2	4	270	0.00	30.062 
10:40	64.2	64.2	64.2	89	60.9	2	7	270	0.00	30.063 
10:45	64.2	64.2	64.2	89	60.9	2	5	248	0.00	30.064 
10:50	64.2	64.2	64.2	89	60.9	2	5	270	0.00	30.066 
10:55	64.2	64.2	64.2	88	60.6	3	5	270	0.00	30.069 
11:00	64.3	64.3	64.3	89	61.0	2	5	270	0.00	30.069 
11:05	64.7	64.7	64.7	88	61.1	2	6	225	0.00	30.067 
11:10	64.8	64.8	64.8	88	61.2	2	9	248	0.00	30.068 
11:15	65.2	65.2	65.2	88	61.6	2	5	270	0.00	30.068 
11:20	65.5	65.5	65.5	85	60.9	3	9	270	0.00	30.067 
11:25	66.1	66.1	66.1	84	61.1	2	5	248	0.00	30.064 
11:30	66.4	66.4	66.4	83	61.1	2	6	248	0.00	30.064 
11:35	66.8	66.8	66.8	81	60.8	1	4	248	0.00	30.068 
11:40	66.8	66.8	66.8	80	60.4	1	4	248	0.00	30.073 
11:45	66.9	66.9	66.9	79	60.2	1	3	292	0.00	30.068 
11:50	67.1	67.1	67.1	76	59.3	1	3	270	0.00	30.066 
11:55	67.3	67.3	67.3	76	59.5	1	3	248	0.00	30.064 
12:00	67.4	67.4	67.4	76	59.6	0	2	248	0.00	30.065 
12:05	67.4	67.4	67.4	76	59.6	1	3	270	0.00	30.063 
12:10	67.4	67.4	67.4	76	59.6	0	2	292	0.00	30.060 
12:15	67.3	67.3	67.3	75	59.1	1	3	292	0.00	30.060 
12:20	67.3	67.3	67.3	76	59.5	0	2	292	0.00	30.060 
12:25	67.4	67.4	67.4	77	59.9	0	2	315	0.00	30.056 
12:30	67.8	67.8	67.8	75	59.6	0	1	315	0.00	30.052 
12:35	67.9	67.9	67.9	74	59.3	0	1	315	0.00	30.052 
12:40	68.3	68.3	68.3	74	59.7	0	1	315	0.00	30.050 
12:45	68.4	68.4	68.4	72	59.0	1	2	248	0.00	30.049 
12:50	68.6	68.6	68.6	71	58.8	1	2	248	0.00	30.055 
12:55	68.9	68.9	68.9	71	59.1	2	5	248	0.00	30.059 
13:00	69.3	69.3	69.3	69	58.7	2	4	248	0.00	30.059 
13:05	69.4	69.4	69.4	70	59.2	1	5	248	0.00	30.061 
13:10	69.4	69.4	69.4	65	57.1	2	6	248	0.00	30.060 
13:15	69.6	69.6	69.6	64	56.9	1	3	248	0.00	30.059 
13:20	69.9	69.9	69.9	64	57.2	1	4	248	0.00	30.059 
13:25	70.1	70.1	70.1	63	56.9	2	4	248	0.00	30.060 
13:30	70.6	70.6	70.6	62	56.9	1	3	248	0.00	30.059 
13:35	70.9	70.9	70.9	62	57.2	1	5	270	0.00	30.059 
13:40	71.3	71.3	71.3	64	58.5	2	4	248	0.00	30.061 
13:45	72.0	72.0	72.0	62	58.3	1	3	225	0.00	30.060 
13:50	72.3	72.3	72.3	64	59.4	1	4	292	0.00	30.058 
13:55	72.7	72.7	72.7	63	59.4	1	4	248	0.00	30.058 
14:00	73.0	73.0	73.0	65	60.5	1	3	45	0.00	30.058 
14:05	73.0	73.0	73.0	66	61.0	1	3	112	0.00	30.057 
14:10	72.8	72.8	72.8	67	61.2	1	2	90	0.00	30.057 
14:15	72.8	72.8	72.8	66	60.8	1	3	248	0.00	30.057 
14:20	72.8	72.8	72.8	62	59.0	1	4	248	0.00	30.058 
14:25	73.2	73.2	73.2	65	60.7	1	3	248	0.00	30.058 
14:30	73.2	73.2	73.2	62	59.4	1	4	248	0.00	30.059 
14:35	73.2	73.2	73.2	61	58.9	1	3	248	0.00	30.058 
14:40	73.5	73.5	73.5	62	59.7	2	5	248	0.00	30.057 
14:45	73.7	73.7	73.7	61	59.4	1	5	248	0.00	30.055 
14:50	73.9	73.9	73.9	62	60.0	1	4	248	0.00	30.052 
14:55	73.9	73.9	73.9	64	60.9	1	3	248	0.00	30.048 
15:00	73.9	73.9	73.9	62	60.0	1	4	112	0.00	30.049 
15:05	73.9	73.9	73.9	62	60.0	1	3	248	0.00	30.047 
15:10	74.0	74.0	74.0	62	60.1	0	2	248	0.00	30.042 
15:15	74.2	74.2	74.2	61	59.9	1	4	248	0.00	30.043 
15:20	74.6	74.6	74.6	61	60.2	1	3	248	0.00	30.042 
15:25	74.6	74.6	74.6	61	60.2	1	3	225	0.00	30.042 
15:30	74.7	74.7	74.7	59	59.4	3	5	270	0.00	30.043 
15:35	74.7	74.7	74.7	59	59.4	4	12	248	0.00	30.041 
15:40	74.7	74.7	74.7	59	59.4	4	11	248	0.00	30.038 
15:45	74.7	74.7	74.7	60	59.9	3	6	248	0.00	30.036 
15:50	74.7	74.7	74.7	59	59.4	3	7	248	0.00	30.033 
15:55	74.7	74.7	74.7	59	59.4	4	10	248	0.00	30.032 
16:00	74.7	74.7	74.7	59	59.4	3	6	248	0.00	30.032 
16:05	74.9	74.9	74.9	60	60.1	2	5	248	0.00	30.034 
16:10	75.1	75.1	77.4	60	60.2	1	4	248	0.00	30.035 
16:15	74.9	74.9	74.9	59	59.6	3	7	270	0.00	30.035 
16:20	74.9	74.9	74.9	59	59.6	2	3	270	0.00	30.034 
16:25	74.7	74.7	74.7	60	59.9	2	5	248	0.00	30.036 
16:30	74.7	74.7	74.7	59	59.4	2	5	270	0.00	30.035 
16:35	74.7	74.7	74.7	59	59.4	2	4	270	0.00	30.035 
16:40	74.7	74.7	74.7	59	59.4	2	6	248	0.00	30.035 
16:45	74.9	74.9	74.9	58	59.1	3	9	248	0.00	30.034 
16:50	75.1	75.1	77.5	57	58.8	2	7	270	0.00	30.036 
16:55	75.1	75.1	77.5	57	58.8	2	5	270	0.00	30.036 
17:00	75.1	75.1	77.5	57	58.8	2	4	248	0.00	30.037 
17:05	75.1	75.1	77.6	56	58.3	3	6	248	0.00	30.039 
17:10	75.1	75.1	77.6	56	58.3	2	5	248	0.00	30.040 
17:15	75.1	75.1	77.5	58	59.3	1	4	248	0.00	30.043 
17:20	75.3	75.3	77.6	57	59.0	1	2	248	0.00	30.043 
17:25	75.3	75.3	77.7	55	58.0	1	4	248	0.00	30.044 
17:30	75.4	75.4	77.7	56	58.6	1	3	248	0.00	30.045 
17:35	75.3	75.3	77.7	55	58.0	1	3	292	0.00	30.045 
17:40	74.9	74.9	74.9	56	58.1	1	3	248	0.00	30.044 
17:45	74.7	74.7	74.7	57	58.4	0	2	248	0.00	30.044 
17:50	74.6	74.6	74.6	57	58.3	1	3	248	0.00	30.044 
17:55	74.4	74.4	74.4	58	58.6	0	2	248	0.00	30.044 
18:00	74.2	74.2	74.2	58	58.5	1	2	248	0.00	30.043 
18:05	73.9	73.9	73.9	57	57.7	1	3	248	0.00	30.041 
18:10	73.9	73.9	73.9	58	58.2	1	3	248	0.00	30.039 
18:15	73.5	73.5	73.5	58	57.8	0	2	248	0.00	30.040 
18:20	73.3	73.3	73.3	59	58.1	0	1	248	0.00	30.042 
18:25	73.0	73.0	73.0	60	58.3	0	0	---	0.00	30.042 
18:30	72.7	72.7	72.7	61	58.5	0	0	---	0.00	30.042 
18:35	72.3	72.3	72.3	61	58.1	0	0	---	0.00	30.044 
18:40	72.0	72.0	72.0	62	58.3	0	0	---	0.00	30.046 
18:45	71.6	71.6	71.6	63	58.3	0	0	---	0.00	30.046 
18:50	70.9	70.9	70.9	65	58.5	0	0	---	0.00	30.049 
18:55	70.4	70.4	70.4	65	58.1	0	0	---	0.00	30.053 
19:00	70.1	70.1	70.1	67	58.6	0	0	---	0.00	30.058 
19:05	69.4	69.4	69.4	68	58.4	0	0	---	0.00	30.058 
19:10	68.9	68.9	68.9	69	58.3	0	0	---	0.00	30.059 
19:15	68.6	68.6	68.6	70	58.4	0	0	---	0.00	30.061 
19:20	68.3	68.3	68.3	70	58.1	0	0	---	0.00	30.064 
19:25	67.8	67.8	67.8	71	58.0	0	0	---	0.00	30.064 
19:30	67.4	67.4	67.4	72	58.1	0	0	---	0.00	30.064 
19:35	67.1	67.1	67.1	73	58.1	0	0	---	0.00	30.065 
19:40	66.8	66.8	66.8	74	58.2	0	0	---	0.00	30.066 
19:45	66.4	66.4	66.4	74	57.9	0	0	---	0.00	30.069 
19:50	66.1	66.1	66.1	75	57.9	0	0	---	0.00	30.069 
19:55	66.0	66.0	66.0	76	58.2	0	0	---	0.00	30.069 
20:00	65.8	65.8	65.8	77	58.4	0	0	---	0.00	30.068 
20:05	65.6	65.6	65.6	77	58.2	0	0	---	0.00	30.069 
20:10	65.6	65.6	65.6	77	58.2	0	0	---	0.00	30.069 
20:15	65.5	65.5	65.5	77	58.1	0	0	---	0.00	30.071 
20:20	65.3	65.3	65.3	77	57.9	0	0	---	0.00	30.075 
20:25	65.0	65.0	65.0	78	58.0	0	0	---	0.00	30.077 
20:30	64.7	64.7	64.7	79	58.0	0	0	---	0.00	30.079 
20:35	64.5	64.5	64.5	79	57.8	0	0	---	0.00	30.079 
20:40	64.3	64.3	64.3	80	58.0	0	0	---	0.00	30.078 
20:45	64.2	64.2	64.2	81	58.2	0	0	---	0.00	30.079 
20:50	64.0	64.0	64.0	81	58.0	0	0	---	0.00	30.080 
20:55	63.9	63.9	63.9	81	57.9	0	0	---	0.00	30.081 
21:00	63.5	63.5	63.5	82	57.9	0	0	---	0.00	30.082 
21:05	63.4	63.4	63.4	82	57.8	0	0	---	0.00	30.083 
21:10	63.2	63.2	63.2	83	57.9	0	0	---	0.00	30.083 
21:15	62.9	62.9	62.9	83	57.7	0	0	---	0.00	30.084 
21:20	62.7	62.7	62.7	84	57.8	0	0	---	0.00	30.085 
21:25	62.6	62.6	62.6	84	57.7	0	0	---	0.00	30.088 
21:30	62.6	62.6	62.6	85	58.0	0	0	---	0.00	30.092 
21:35	62.6	62.6	62.6	85	58.0	1	5	22	0.00	30.098 
21:40	63.9	63.9	63.9	75	55.8	5	14	90	0.00	30.110 
21:45	64.2	64.2	64.2	71	54.6	4	10	45	0.00	30.113 
21:50	64.0	64.0	64.0	71	54.4	3	7	112	0.00	30.116 
21:55	63.9	63.9	63.9	70	53.9	5	11	112	0.00	30.118 
22:00	63.7	63.7	63.7	71	54.1	3	10	90	0.00	30.116 
22:05	63.4	63.4	63.4	71	53.8	3	13	112	0.00	30.120 
22:10	63.4	63.4	63.4	72	54.2	5	12	112	0.00	30.121 
22:15	63.2	63.2	63.2	71	53.6	5	14	112	0.00	30.117 
22:20	63.2	63.2	63.2	72	54.0	5	10	112	0.00	30.119 
22:25	63.1	63.1	63.1	72	53.9	4	9	90	0.00	30.119 
22:30	63.1	63.1	63.1	72	53.9	4	7	112	0.00	30.121 
22:35	62.7	62.7	62.7	73	53.9	3	7	112	0.00	30.120 
22:40	62.7	62.7	62.7	72	53.5	3	6	90	0.00	30.123 
22:45	62.6	62.6	62.6	73	53.8	3	5	112	0.00	30.118 
22:50	62.6	62.6	62.6	73	53.8	4	7	112	0.00	30.118 
22:55	62.4	62.4	62.4	73	53.6	3	7	112	0.00	30.120 
23:00	62.4	62.4	62.4	73	53.6	3	10	112	0.00	30.118 
23:05	62.3	62.3	62.3	74	53.9	3	9	90	0.00	30.116 
23:10	62.1	62.1	62.1	74	53.7	4	7	90	0.00	30.118 
23:15	62.1	62.1	62.1	74	53.7	3	5	90	0.00	30.117 
23:20	62.0	62.0	62.0	75	54.0	3	6	90	0.00	30.117 
23:25	61.6	61.6	61.6	76	54.0	3	5	112	0.00	30.115 
23:30	61.5	61.5	61.5	76	53.9	3	5	90	0.00	30.113 
23:35	61.2	61.2	61.2	77	53.9	3	6	112	0.00	30.113 
23:40	61.0	61.0	61.0	77	53.7	3	7	112	0.00	30.113 
23:45	60.9	60.9	60.9	78	54.0	2	5	112	0.00	30.115 
23:50	60.9	60.9	60.9	78	54.0	2	5	112	0.00	30.118 
23:55	60.7	60.7	60.7	78	53.8	2	4	90	0.00	30.122 

CoCoRaHS
IN-AL-39
A2 Web Hosting
Creative Commons License
GoDaddy
Look for:

loaded 2017-12-12 17:05:32 • last modified 2010-11-18 10:43:29
Privacy PolicyDisclaimer
• wx.awcolley.com is powered by PmWiki v.2002016 •
• all content (unless otherwise noted) © 2017 A W Colley